Time;durP1;ratioP1;P1;durP2;ratioP2;P2;SDS_P1;SDS_P2;PMS_P1;PMS_P2;Temp;Humidity;BMP_temperature;BMP_pressure;BME280_temperature;BME280_humidity;BME280_pressure;Samples;Min_cycle;Max_cycle;Signal;HPM_P1;HPM_P2
2023/08/08 00:01:23;;;;;;;16.92;5.35;;;;;;;;;;4971263;28;20023;-57
2023/08/08 00:03:49;;;;;;;15.63;5.47;;;;;;;;;;4972602;28;20061;-54
2023/08/08 00:06:15;;;;;;;14.25;4.85;;;;;;;;;;4972401;28;20121;-56
2023/08/08 00:08:41;;;;;;;15.25;5.03;;;;;;;;;;4972526;28;20031;-59
2023/08/08 00:11:07;;;;;;;16.85;5.47;;;;;;;;;;4972534;28;20022;-54
2023/08/08 00:13:33;;;;;;;16.45;5.50;;;;;;;;;;4972487;28;20031;-56
2023/08/08 00:15:59;;;;;;;17.98;5.40;;;;;;;;;;4972060;28;20062;-55
2023/08/08 00:18:25;;;;;;;15.32;5.00;;;;;;;;;;4970974;28;20023;-60
2023/08/08 00:20:51;;;;;;;15.63;4.40;;;;;;;;;;4972547;28;20057;-57
2023/08/08 00:23:17;;;;;;;14.30;4.55;;;;;;;;;;4971204;28;20061;-53
2023/08/08 00:25:43;;;;;;;16.67;5.03;;;;;;;;;;5030934;28;20492;-59
2023/08/08 00:28:09;;;;;;;15.82;5.45;;;;;;;;;;5074264;28;20021;-59
2023/08/08 00:30:35;;;;;;;15.88;5.32;;;;;;;;;;5074056;28;20021;-57
2023/08/08 00:33:01;;;;;;;15.27;5.32;;;;;;;;;;5074053;28;20035;-57
2023/08/08 00:35:27;;;;;;;16.48;5.88;;;;;;;;;;5073812;28;20111;-53
2023/08/08 00:37:53;;;;;;;15.85;6.55;;;;;;;;;;5072799;28;20122;-55
2023/08/08 00:40:19;;;;;;;16.88;5.43;;;;;;;;;;5073986;28;20074;-59
2023/08/08 00:42:44;;;;;;;17.30;5.28;;;;;;;;;;5073785;28;20159;-59
2023/08/08 00:45:10;;;;;;;15.18;5.00;;;;;;;;;;5073587;28;20031;-52
2023/08/08 00:47:36;;;;;;;16.58;5.25;;;;;;;;;;5072455;28;20082;-54
2023/08/08 00:50:03;;;;;;;13.93;4.10;;;;;;;;;;5073717;28;20017;-58
2023/08/08 00:52:29;;;;;;;15.73;5.40;;;;;;;;;;5073616;28;20374;-57
2023/08/08 00:54:56;;;;;;;12.70;4.00;;;;;;;;;;5073537;28;20081;-56
2023/08/08 00:57:22;;;;;;;13.30;4.55;;;;;;;;;;5072586;28;20024;-56
2023/08/08 00:59:48;;;;;;;16.05;5.43;;;;;;;;;;5073380;28;20060;-54
2023/08/08 01:02:14;;;;;;;15.65;5.68;;;;;;;;;;5072194;28;20028;-56
2023/08/08 01:04:40;;;;;;;19.27;6.75;;;;;;;;;;5072455;28;20085;-60
2023/08/08 01:07:25;;;;;;;17.45;6.45;;;;;;;;;;5073454;28;20036;-54
2023/08/08 01:09:51;;;;;;;16.15;8.43;;;;;;;;;;5073401;28;20107;-58
2023/08/08 01:12:17;;;;;;;9.55;5.65;;;;;;;;;;5073216;28;20108;-58
2023/08/08 01:14:43;;;;;;;12.40;7.50;;;;;;;;;;5072980;28;20039;-58
2023/08/08 01:17:11;;;;;;;11.77;7.03;;;;;;;;;;5073377;28;20028;-57
2023/08/08 01:19:37;;;;;;;11.30;6.70;;;;;;;;;;5062907;28;20028;-58
2023/08/08 01:22:05;;;;;;;11.30;6.68;;;;;;;;;;4971224;28;20031;-58
2023/08/08 01:24:32;;;;;;;10.60;6.30;;;;;;;;;;4971332;28;20104;-59
2023/08/08 01:27:00;;;;;;;13.17;8.83;;;;;;;;;;4971562;28;20022;-60
2023/08/08 01:29:26;;;;;;;13.38;8.20;;;;;;;;;;4971081;28;20023;-58
2023/08/08 01:31:52;;;;;;;12.50;7.40;;;;;;;;;;4971302;28;20088;-56
2023/08/08 01:34:18;;;;;;;12.73;7.68;;;;;;;;;;4971111;28;20039;-57
2023/08/08 01:36:47;;;;;;;14.20;10.73;;;;;;;;;;4971328;28;20025;-58
2023/08/08 01:39:14;;;;;;;14.10;10.25;;;;;;;;;;4970080;28;20038;-60
2023/08/08 01:41:41;;;;;;;14.55;11.63;;;;;;;;;;4967716;28;20058;-56
2023/08/08 01:44:08;;;;;;;14.40;11.30;;;;;;;;;;4970707;28;20027;-58
2023/08/08 01:46:34;;;;;;;14.52;11.70;;;;;;;;;;4971022;28;20019;-58
2023/08/08 01:49:00;;;;;;;14.30;10.98;;;;;;;;;;4971111;28;20030;-59
2023/08/08 01:51:27;;;;;;;14.40;11.02;;;;;;;;;;4969643;28;20030;-54
2023/08/08 01:53:53;;;;;;;14.40;11.15;;;;;;;;;;4971021;28;20487;-57
2023/08/08 01:56:19;;;;;;;14.50;10.25;;;;;;;;;;4970861;28;20106;-55
2023/08/08 01:58:45;;;;;;;14.43;11.13;;;;;;;;;;4970982;28;20038;-60
2023/08/08 02:01:11;;;;;;;14.00;10.10;;;;;;;;;;4969514;28;20034;-54
2023/08/08 02:03:37;;;;;;;13.98;9.85;;;;;;;;;;4970941;28;20072;-58
2023/08/08 02:06:03;;;;;;;13.82;9.60;;;;;;;;;;4970633;28;20392;-56
2023/08/08 02:08:29;;;;;;;14.00;10.00;;;;;;;;;;4970814;28;20120;-55
2023/08/08 02:10:55;;;;;;;13.98;10.02;;;;;;;;;;4970202;28;20022;-57
2023/08/08 02:13:21;;;;;;;13.98;9.93;;;;;;;;;;4971019;28;20097;-57
2023/08/08 02:15:47;;;;;;;14.07;10.10;;;;;;;;;;4970685;28;20475;-54
2023/08/08 02:18:13;;;;;;;14.45;10.30;;;;;;;;;;4970826;28;20035;-53
2023/08/08 02:20:39;;;;;;;13.60;8.95;;;;;;;;;;4970669;28;20551;-58
2023/08/08 02:23:05;;;;;;;13.95;9.75;;;;;;;;;;4970459;28;20035;-56
2023/08/08 02:25:31;;;;;;;14.20;10.50;;;;;;;;;;4969085;28;20058;-56
2023/08/08 02:27:57;;;;;;;14.20;10.60;;;;;;;;;;4970538;28;20440;-58
2023/08/08 02:30:23;;;;;;;14.20;10.70;;;;;;;;;;4970427;28;20096;-56
2023/08/08 02:32:49;;;;;;;14.20;10.90;;;;;;;;;;4970346;28;20030;-55
2023/08/08 02:35:15;;;;;;;14.00;10.07;;;;;;;;;;4970138;28;20038;-56
2023/08/08 02:37:41;;;;;;;13.90;9.70;;;;;;;;;;4970164;28;20102;-58
2023/08/08 02:40:07;;;;;;;14.00;9.77;;;;;;;;;;4970292;28;20535;-54
2023/08/08 02:42:34;;;;;;;13.88;9.60;;;;;;;;;;4970047;28;20034;-59
2023/08/08 02:45:00;;;;;;;13.82;9.50;;;;;;;;;;4968765;28;20042;-58
2023/08/08 02:47:25;;;;;;;13.68;9.20;;;;;;;;;;4970133;28;20015;-55
2023/08/08 02:49:51;;;;;;;13.70;9.20;;;;;;;;;;4970296;28;20537;-58
2023/08/08 02:52:17;;;;;;;13.57;8.88;;;;;;;;;;4970118;28;20089;-56
2023/08/08 02:54:43;;;;;;;13.63;9.00;;;;;;;;;;4969914;28;20481;-55
2023/08/08 02:57:12;;;;;;;13.70;9.20;;;;;;;;;;4969990;28;20031;-52
2023/08/08 02:59:38;;;;;;;13.70;9.10;;;;;;;;;;4970239;28;20037;-57
2023/08/08 03:02:05;;;;;;;15.05;10.27;;;;;;;;;;4969848;28;20035;-57
2023/08/08 03:04:30;;;;;;;13.57;8.88;;;;;;;;;;4969846;28;20372;-58
2023/08/08 03:06:57;;;;;;;14.10;9.57;;;;;;;;;;4969800;28;20033;-58
2023/08/08 03:09:22;;;;;;;13.65;9.10;;;;;;;;;;4969945;28;20113;-59
2023/08/08 03:11:49;;;;;;;14.00;9.32;;;;;;;;;;4969736;28;20115;-56
2023/08/08 03:14:15;;;;;;;13.90;9.60;;;;;;;;;;4969737;28;20046;-58
2023/08/08 03:16:41;;;;;;;14.20;10.50;;;;;;;;;;4969934;28;20495;-58
2023/08/08 03:19:07;;;;;;;13.57;8.80;;;;;;;;;;4969875;28;20019;-57
2023/08/08 03:21:33;;;;;;;13.93;9.90;;;;;;;;;;4971062;28;20045;-57
2023/08/08 03:23:59;;;;;;;14.02;9.82;;;;;;;;;;4973069;28;20035;-57
2023/08/08 03:26:25;;;;;;;14.10;10.10;;;;;;;;;;4968973;28;20058;-55
2023/08/08 03:28:53;;;;;;;14.10;10.20;;;;;;;;;;5014208;28;20023;-56
2023/08/08 03:31:19;;;;;;;14.00;10.02;;;;;;;;;;4973271;28;20026;-55
2023/08/08 03:33:45;;;;;;;14.00;9.98;;;;;;;;;;4973144;28;20186;-59
2023/08/08 03:36:11;;;;;;;13.90;9.90;;;;;;;;;;4973512;28;20031;-57
2023/08/08 03:38:40;;;;;;;13.90;9.70;;;;;;;;;;4973268;28;20031;-59
2023/08/08 03:41:06;;;;;;;13.85;9.52;;;;;;;;;;4971719;28;20058;-56
2023/08/08 03:43:31;;;;;;;13.85;9.57;;;;;;;;;;4973107;28;20061;-58
2023/08/08 03:45:57;;;;;;;14.00;10.00;;;;;;;;;;4973071;28;20022;-58
2023/08/08 03:48:23;;;;;;;14.05;10.25;;;;;;;;;;4973052;28;20038;-58
2023/08/08 03:50:49;;;;;;;13.30;8.10;;;;;;;;;;4971669;28;20019;-58
2023/08/08 03:53:15;;;;;;;13.63;8.82;;;;;;;;;;4971406;28;20487;-54
2023/08/08 03:55:41;;;;;;;13.27;7.90;;;;;;;;;;4972646;28;20030;-55
2023/08/08 03:58:07;;;;;;;16.63;9.13;;;;;;;;;;4971655;28;20030;-58
2023/08/08 04:00:33;;;;;;;16.20;8.68;;;;;;;;;;4971423;28;20062;-54
2023/08/08 04:02:59;;;;;;;13.30;8.32;;;;;;;;;;4971442;28;20023;-58
2023/08/08 04:05:25;;;;;;;13.38;8.40;;;;;;;;;;4972350;28;20088;-54
2023/08/08 04:07:51;;;;;;;13.23;8.00;;;;;;;;;;4971404;28;20027;-58
2023/08/08 04:10:17;;;;;;;13.43;8.30;;;;;;;;;;4972607;28;20026;-58
2023/08/08 04:12:43;;;;;;;13.52;8.52;;;;;;;;;;4972520;28;20035;-59
2023/08/08 04:15:09;;;;;;;13.18;7.88;;;;;;;;;;4972051;28;20027;-57
2023/08/08 04:17:36;;;;;;;13.38;8.15;;;;;;;;;;4972443;28;20132;-58
2023/08/08 04:20:05;;;;;;;13.27;7.90;;;;;;;;;;4972483;28;20030;-57
2023/08/08 04:22:31;;;;;;;13.25;8.00;;;;;;;;;;4972324;28;20106;-56
2023/08/08 04:24:57;;;;;;;13.50;8.43;;;;;;;;;;4972277;28;20110;-59
2023/08/08 04:27:23;;;;;;;13.88;8.80;;;;;;;;;;4973054;28;20090;-54
2023/08/08 04:29:49;;;;;;;12.88;7.80;;;;;;;;;;4970807;28;20019;-53
2023/08/08 04:32:15;;;;;;;11.73;6.97;;;;;;;;;;4972188;28;20058;-58
2023/08/08 04:34:41;;;;;;;11.60;6.80;;;;;;;;;;4971614;28;20041;-56
2023/08/08 04:37:07;;;;;;;11.10;6.60;;;;;;;;;;4971035;28;20034;-58
2023/08/08 04:39:33;;;;;;;12.20;7.30;;;;;;;;;;4970777;28;20121;-56
2023/08/08 04:41:59;;;;;;;12.20;7.30;;;;;;;;;;4971711;28;20051;-57
2023/08/08 04:44:25;;;;;;;11.50;6.80;;;;;;;;;;4971829;28;20048;-58
2023/08/08 04:46:51;;;;;;;12.63;7.43;;;;;;;;;;4970951;28;20038;-59
2023/08/08 04:49:17;;;;;;;11.60;7.00;;;;;;;;;;4971798;28;20034;-59
2023/08/08 04:51:43;;;;;;;10.80;6.35;;;;;;;;;;4970658;28;20030;-57
2023/08/08 04:54:09;;;;;;;10.25;6.10;;;;;;;;;;4971766;28;20023;-56
2023/08/08 04:56:35;;;;;;;10.10;6.00;;;;;;;;;;4971942;28;20099;-57
2023/08/08 04:59:01;;;;;;;9.90;5.88;;;;;;;;;;4971641;28;20062;-55
2023/08/08 05:01:27;;;;;;;10.07;5.90;;;;;;;;;;4970475;28;20026;-52
2023/08/08 05:03:53;;;;;;;10.60;6.40;;;;;;;;;;4971595;28;20027;-55
2023/08/08 05:06:19;;;;;;;8.48;5.05;;;;;;;;;;4971615;28;20026;-59
2023/08/08 05:08:45;;;;;;;9.00;5.38;;;;;;;;;;4971517;28;20031;-57
2023/08/08 05:11:11;;;;;;;8.00;4.78;;;;;;;;;;4967685;28;20506;-59
2023/08/08 05:13:37;;;;;;;7.03;4.20;;;;;;;;;;4969465;28;20479;-59
2023/08/08 05:16:03;;;;;;;6.82;4.07;;;;;;;;;;4971142;28;20039;-55
2023/08/08 05:18:29;;;;;;;6.55;3.90;;;;;;;;;;4970005;28;20447;-56
2023/08/08 05:20:55;;;;;;;7.00;4.15;;;;;;;;;;4971065;28;20041;-55
2023/08/08 05:23:21;;;;;;;6.28;3.70;;;;;;;;;;4971115;28;20031;-52
2023/08/08 05:25:47;;;;;;;6.28;3.75;;;;;;;;;;4971091;28;20494;-56
2023/08/08 05:28:13;;;;;;;5.78;3.42;;;;;;;;;;4970105;28;20027;-58
2023/08/08 05:30:39;;;;;;;5.30;3.17;;;;;;;;;;4971105;28;20029;-55
2023/08/08 05:33:05;;;;;;;4.80;2.80;;;;;;;;;;4969753;28;20103;-57
2023/08/08 05:35:31;;;;;;;5.00;3.00;;;;;;;;;;4970704;28;20395;-57
2023/08/08 05:37:57;;;;;;;5.18;2.90;;;;;;;;;;4971002;28;20026;-55
2023/08/08 05:40:23;;;;;;;4.40;2.60;;;;;;;;;;4969743;28;20487;-58
2023/08/08 05:42:49;;;;;;;13.55;5.53;;;;;;;;;;4990659;22;20061;-65
2023/08/08 05:45:15;;;;;;;4.85;2.92;;;;;;;;;;4992499;28;20028;-64
2023/08/08 05:47:41;;;;;;;6.38;3.85;;;;;;;;;;5018277;28;20025;-61
2023/08/08 05:50:07;;;;;;;5.15;3.00;;;;;;;;;;5060936;28;20495;-63
2023/08/08 05:52:33;;;;;;;4.10;2.38;;;;;;;;;;5061426;28;20016;-64
2023/08/08 05:54:59;;;;;;;3.75;2.20;;;;;;;;;;5058784;28;20056;-64
2023/08/08 05:57:26;;;;;;;5.40;2.97;;;;;;;;;;5060234;28;20025;-63
2023/08/08 05:59:52;;;;;;;4.70;2.58;;;;;;;;;;5059791;28;20393;-63
2023/08/08 06:02:18;;;;;;;3.50;2.15;;;;;;;;;;5059722;28;20037;-64
2023/08/08 06:04:45;;;;;;;4.07;2.30;;;;;;;;;;5059445;28;20025;-64
2023/08/08 06:07:11;;;;;;;5.15;3.00;;;;;;;;;;5057836;28;20014;-63
2023/08/08 06:09:37;;;;;;;6.03;4.47;;;;;;;;;;5059784;28;20076;-62
2023/08/08 06:12:03;;;;;;;3.80;2.20;;;;;;;;;;5058920;28;20085;-63
2023/08/08 06:14:30;;;;;;;3.10;1.90;;;;;;;;;;5058470;28;20493;-62
2023/08/08 06:16:56;;;;;;;3.42;2.00;;;;;;;;;;5060058;28;20036;-61
2023/08/08 06:19:22;;;;;;;9.55;5.18;;;;;;;;;;5059408;28;20374;-63
2023/08/08 06:21:49;;;;;;;6.88;3.75;;;;;;;;;;5058240;28;20060;-62
2023/08/08 06:24:15;;;;;;;4.30;2.17;;;;;;;;;;5058191;28;20032;-62
2023/08/08 06:26:41;;;;;;;4.45;2.20;;;;;;;;;;5059684;28;20028;-62
2023/08/08 06:29:07;;;;;;;3.60;2.10;;;;;;;;;;5060346;28;20039;-63
2023/08/08 06:31:33;;;;;;;2.90;1.75;;;;;;;;;;5060718;28;20074;-64
2023/08/08 06:33:59;;;;;;;13.38;5.93;;;;;;;;;;5060011;28;20074;-63
2023/08/08 06:36:25;;;;;;;6.38;4.65;;;;;;;;;;5059991;28;20049;-63
2023/08/08 06:38:51;;;;;;;3.65;2.15;;;;;;;;;;5059864;28;20017;-64
2023/08/08 06:41:17;;;;;;;7.05;3.55;;;;;;;;;;5029331;28;20114;-63
2023/08/08 06:43:43;;;;;;;4.55;2.53;;;;;;;;;;4959044;28;20051;-63
2023/08/08 06:46:09;;;;;;;3.05;1.85;;;;;;;;;;4958404;29;20030;-64
2023/08/08 06:48:35;;;;;;;4.53;2.58;;;;;;;;;;4958817;28;20019;-63
2023/08/08 06:51:01;;;;;;;3.35;2.08;;;;;;;;;;4958395;28;20031;-64
2023/08/08 06:53:27;;;;;;;3.22;1.88;;;;;;;;;;4957320;28;20035;-64
2023/08/08 06:55:53;;;;;;;4.15;2.22;;;;;;;;;;4957443;28;20031;-63
2023/08/08 06:58:19;;;;;;;2.60;1.60;;;;;;;;;;4958207;28;20057;-64
2023/08/08 07:00:45;;;;;;;3.47;1.95;;;;;;;;;;4958325;28;20042;-63
2023/08/08 07:03:11;;;;;;;2.83;1.70;;;;;;;;;;4957354;28;20074;-64
2023/08/08 07:05:39;;;;;;;4.15;2.40;;;;;;;;;;4951075;28;20047;-62
2023/08/08 07:08:05;;;;;;;4.30;2.22;;;;;;;;;;4950640;28;20043;-61
2023/08/08 07:10:31;;;;;;;3.35;1.85;;;;;;;;;;4951609;28;20042;-61
2023/08/08 07:12:57;;;;;;;2.80;1.70;;;;;;;;;;5012209;28;20029;-61
2023/08/08 07:15:23;;;;;;;6.70;3.03;;;;;;;;;;4982803;28;20098;-60
2023/08/08 07:17:49;;;;;;;3.35;1.90;;;;;;;;;;4949718;28;20201;-60
2023/08/08 07:20:15;;;;;;;3.20;1.80;;;;;;;;;;4949536;28;20121;-60
2023/08/08 07:22:41;;;;;;;3.72;2.15;;;;;;;;;;4949424;29;20373;-60
2023/08/08 07:25:08;;;;;;;6.68;3.60;;;;;;;;;;4949427;28;20050;-58
2023/08/08 07:27:34;;;;;;;28.40;13.60;;;;;;;;;;4947968;28;20023;-59
2023/08/08 07:30:01;;;;;;;24.05;13.75;;;;;;;;;;4949389;28;20061;-61
2023/08/08 07:32:26;;;;;;;23.90;12.23;;;;;;;;;;4949340;28;20077;-59
2023/08/08 07:34:53;;;;;;;27.92;12.70;;;;;;;;;;4949162;28;20039;-61
2023/08/08 07:37:19;;;;;;;22.92;12.80;;;;;;;;;;4948920;28;20488;-61
2023/08/08 07:39:45;;;;;;;25.35;12.25;;;;;;;;;;4949128;28;20035;-60
2023/08/08 07:42:10;;;;;;;28.55;13.73;;;;;;;;;;4948798;28;20096;-60
2023/08/08 07:44:38;;;;;;;26.60;15.02;;;;;;;;;;4949028;28;20058;-61
2023/08/08 07:47:04;;;;;;;29.48;16.67;;;;;;;;;;4949149;28;20098;-62
2023/08/08 07:49:30;;;;;;;29.55;13.23;;;;;;;;;;4949249;28;20109;-58
2023/08/08 07:51:56;;;;;;;27.05;14.85;;;;;;;;;;4948721;28;20061;-56
2023/08/08 07:54:22;;;;;;;25.45;13.23;;;;;;;;;;4948591;28;20103;-61
2023/08/08 07:56:48;;;;;;;29.40;13.93;;;;;;;;;;4949664;28;20023;-60
2023/08/08 07:59:14;;;;;;;28.08;13.48;;;;;;;;;;4949177;28;20483;-59
2023/08/08 08:01:40;;;;;;;28.25;13.23;;;;;;;;;;4949529;28;20390;-59
2023/08/08 08:04:06;;;;;;;30.23;15.73;;;;;;;;;;4947822;28;20215;-59
2023/08/08 08:06:32;;;;;;;28.02;14.05;;;;;;;;;;4949509;28;20030;-58
2023/08/08 08:08:58;;;;;;;29.45;15.80;;;;;;;;;;4951508;28;20023;-59
2023/08/08 08:11:24;;;;;;;30.10;13.43;;;;;;;;;;4952918;28;20036;-59
2023/08/08 08:13:50;;;;;;;27.80;14.98;;;;;;;;;;4952071;28;20034;-59
2023/08/08 08:16:16;;;;;;;25.50;13.63;;;;;;;;;;4952731;28;20066;-61
2023/08/08 08:18:42;;;;;;;28.02;13.95;;;;;;;;;;4952471;28;20035;-61
2023/08/08 08:21:08;;;;;;;28.35;13.85;;;;;;;;;;4951809;28;20122;-61
2023/08/08 08:23:34;;;;;;;28.77;15.15;;;;;;;;;;4951559;28;20055;-61
2023/08/08 08:26:00;;;;;;;31.25;14.75;;;;;;;;;;5003574;28;20024;-59
2023/08/08 08:28:27;;;;;;;27.50;14.80;;;;;;;;;;5011603;28;20115;-61
2023/08/08 08:30:53;;;;;;;26.70;14.68;;;;;;;;;;5052782;28;20439;-60
2023/08/08 08:33:19;;;;;;;28.45;14.60;;;;;;;;;;5056992;28;20022;-61
2023/08/08 08:35:46;;;;;;;25.58;13.85;;;;;;;;;;5058403;28;20025;-61
2023/08/08 08:38:12;;;;;;;25.17;12.85;;;;;;;;;;5050152;28;20135;-61
2023/08/08 08:40:39;;;;;;;26.02;11.13;;;;;;;;;;4957054;28;20024;-60
2023/08/08 08:43:06;;;;;;;22.80;10.43;;;;;;;;;;4990509;28;20035;-60
2023/08/08 08:45:32;;;;;;;23.25;10.57;;;;;;;;;;5060949;28;20071;-58
2023/08/08 08:47:59;;;;;;;25.17;10.20;;;;;;;;;;5058036;28;20044;-61
2023/08/08 08:50:27;;;;;;;23.35;10.27;;;;;;;;;;5029327;28;20565;-59
2023/08/08 08:52:56;;;;;;;19.83;7.43;;;;;;;;;;5053588;28;20021;-61
2023/08/08 08:55:22;;;;;;;24.58;8.82;;;;;;;;;;5056100;28;20056;-58
2023/08/08 08:57:49;;;;;;;22.10;8.50;;;;;;;;;;4985948;28;20023;-60
2023/08/08 09:00:16;;;;;;;21.95;8.10;;;;;;;;;;4998422;28;20035;-61
2023/08/08 09:02:42;;;;;;;17.05;7.30;;;;;;;;;;5054779;28;20037;-59
2023/08/08 09:05:08;;;;;;;16.77;7.35;;;;;;;;;;5053239;28;20025;-60
2023/08/08 09:07:35;;;;;;;16.25;6.22;;;;;;;;;;5054381;28;20025;-58
2023/08/08 09:10:01;;;;;;;16.48;6.55;;;;;;;;;;5054342;28;20025;-58
2023/08/08 09:12:27;;;;;;;17.02;7.25;;;;;;;;;;5054261;28;20077;-59
2023/08/08 09:14:56;;;;;;;16.45;6.60;;;;;;;;;;5053724;28;20478;-60
2023/08/08 09:17:22;;;;;;;17.15;6.22;;;;;;;;;;5053803;28;20080;-53
2023/08/08 09:19:48;;;;;;;16.77;6.75;;;;;;;;;;5052376;28;20052;-59
2023/08/08 09:22:14;;;;;;;14.95;5.72;;;;;;;;;;5053309;28;20545;-58
2023/08/08 09:24:41;;;;;;;16.08;6.82;;;;;;;;;;5053725;28;20035;-59
2023/08/08 09:27:08;;;;;;;14.15;6.18;;;;;;;;;;5053050;28;20036;-59
2023/08/08 09:29:34;;;;;;;15.25;6.70;;;;;;;;;;4962187;28;20077;-59
2023/08/08 09:32:03;;;;;;;19.38;6.18;;;;;;;;;;4993042;28;20023;-58
2023/08/08 09:34:29;;;;;;;16.90;6.38;;;;;;;;;;5038765;28;20028;-60
2023/08/08 09:36:55;;;;;;;15.65;6.43;;;;;;;;;;5053297;28;20037;-59
2023/08/08 09:39:21;;;;;;;15.30;6.80;;;;;;;;;;5052417;28;20029;-59
2023/08/08 09:41:51;;;;;;;15.40;6.43;;;;;;;;;;5016171;28;20074;-60
2023/08/08 09:44:17;;;;;;;18.17;6.55;;;;;;;;;;4951009;28;20042;-58
2023/08/08 09:46:43;;;;;;;18.33;7.05;;;;;;;;;;4952156;28;20039;-60
2023/08/08 09:49:12;;;;;;;16.75;6.80;;;;;;;;;;4952461;28;20108;-60
2023/08/08 09:51:38;;;;;;;15.32;6.57;;;;;;;;;;4952248;28;20156;-60
2023/08/08 09:54:06;;;;;;;15.02;6.28;;;;;;;;;;4950024;28;20080;-60
2023/08/08 09:56:32;;;;;;;14.77;6.80;;;;;;;;;;4951996;28;20158;-57
2023/08/08 09:58:59;;;;;;;16.02;6.93;;;;;;;;;;4952798;28;20173;-58
2023/08/08 10:01:26;;;;;;;16.38;6.90;;;;;;;;;;4952166;28;20123;-58
2023/08/08 10:03:52;;;;;;;15.55;7.20;;;;;;;;;;4951931;28;20031;-59
2023/08/08 10:06:18;;;;;;;15.32;7.00;;;;;;;;;;4949612;28;20055;-60
2023/08/08 10:08:45;;;;;;;14.20;6.80;;;;;;;;;;4951451;28;20047;-61
2023/08/08 10:11:11;;;;;;;13.52;6.63;;;;;;;;;;4951691;28;20058;-60
2023/08/08 10:13:37;;;;;;;17.50;7.10;;;;;;;;;;4951769;29;20466;-56
2023/08/08 10:16:10;;;;;;;17.85;7.50;;;;;;;;;;4952496;29;20073;-57
2023/08/08 10:18:36;;;;;;;16.52;7.40;;;;;;;;;;4950378;29;20077;-58
2023/08/08 10:21:04;;;;;;;15.88;7.80;;;;;;;;;;4949906;29;20082;-61
2023/08/08 10:23:36;;;;;;;14.73;7.50;;;;;;;;;;4950155;28;20043;-58
2023/08/08 10:26:02;;;;;;;14.00;7.65;;;;;;;;;;4949209;28;20027;-60
2023/08/08 10:28:28;;;;;;;14.75;7.40;;;;;;;;;;4949534;28;20065;-58
2023/08/08 10:30:56;;;;;;;17.10;8.07;;;;;;;;;;4947999;29;20031;-59
2023/08/08 10:33:23;;;;;;;14.55;6.97;;;;;;;;;;4950204;29;20391;-57
2023/08/08 10:35:56;;;;;;;13.48;6.80;;;;;;;;;;4948267;28;20031;-57
2023/08/08 10:38:22;;;;;;;15.60;6.90;;;;;;;;;;4950189;29;20487;-59
2023/08/08 10:40:54;;;;;;;13.55;7.20;;;;;;;;;;4949722;29;20055;-58
2023/08/08 10:43:25;;;;;;;15.38;7.53;;;;;;;;;;4949589;28;20115;-60
2023/08/08 10:45:51;;;;;;;15.88;7.50;;;;;;;;;;4949966;28;20030;-58
2023/08/08 10:48:20;;;;;;;14.35;6.57;;;;;;;;;;4950241;28;20031;-58
2023/08/08 10:50:47;;;;;;;14.77;6.97;;;;;;;;;;4950677;28;20079;-60
2023/08/08 10:53:13;;;;;;;14.52;6.55;;;;;;;;;;4949505;28;20050;-59
2023/08/08 10:55:39;;;;;;;14.05;6.30;;;;;;;;;;4950826;28;20027;-59
2023/08/08 10:58:09;;;;;;;14.77;6.68;;;;;;;;;;4950133;28;21095;-58
2023/08/08 11:00:37;;;;;;;15.82;7.50;;;;;;;;;;4949067;28;20034;-57
2023/08/08 11:03:06;;;;;;;15.32;7.40;;;;;;;;;;4947638;28;20035;-57
2023/08/08 11:05:33;;;;;;;15.25;7.15;;;;;;;;;;4949392;28;20106;-59
2023/08/08 11:07:59;;;;;;;12.88;6.72;;;;;;;;;;4948477;28;20039;-58
2023/08/08 11:10:30;;;;;;;13.38;6.80;;;;;;;;;;4949447;28;20020;-58
2023/08/08 11:13:06;;;;;;;14.82;6.20;;;;;;;;;;4949412;29;20673;-59
2023/08/08 11:15:33;;;;;;;13.32;6.43;;;;;;;;;;4949137;28;20031;-59
2023/08/08 11:18:00;;;;;;;14.00;6.90;;;;;;;;;;4949294;28;20042;-58
2023/08/08 11:20:29;;;;;;;13.32;6.45;;;;;;;;;;4949534;28;20039;-59
2023/08/08 11:22:56;;;;;;;13.23;6.70;;;;;;;;;;4948837;28;20035;-57
2023/08/08 11:25:23;;;;;;;14.50;6.40;;;;;;;;;;4947967;29;20399;-58
2023/08/08 11:27:52;;;;;;;14.00;7.90;;;;;;;;;;4949917;29;20545;-64
2023/08/08 11:30:19;;;;;;;14.25;6.70;;;;;;;;;;4948076;28;20040;-58
2023/08/08 11:32:46;;;;;;;13.13;6.63;;;;;;;;;;4949795;28;20494;-58
2023/08/08 11:35:12;;;;;;;13.30;6.47;;;;;;;;;;4949693;28;20093;-60
2023/08/08 11:37:39;;;;;;;12.30;6.40;;;;;;;;;;4949862;28;20299;-58
2023/08/08 11:40:05;;;;;;;14.82;7.20;;;;;;;;;;4949818;28;20043;-57
2023/08/08 11:42:31;;;;;;;13.13;7.15;;;;;;;;;;4960781;22;20043;-55
2023/08/08 11:44:58;;;;;;;15.32;7.20;;;;;;;;;;4963554;28;20050;-52
2023/08/08 11:47:27;;;;;;;14.88;7.43;;;;;;;;;;4952938;28;20530;-54
2023/08/08 11:49:53;;;;;;;14.38;7.60;;;;;;;;;;4951822;28;20023;-53
2023/08/08 11:52:19;;;;;;;14.85;8.02;;;;;;;;;;4953211;28;20034;-57
2023/08/08 11:54:52;;;;;;;15.90;7.88;;;;;;;;;;4952687;28;20070;-55
2023/08/08 11:57:18;;;;;;;15.55;8.10;;;;;;;;;;4953162;28;20038;-53
2023/08/08 11:59:44;;;;;;;15.65;8.02;;;;;;;;;;4952214;28;20054;-51
2023/08/08 12:02:10;;;;;;;16.95;8.60;;;;;;;;;;4951705;28;20035;-53
2023/08/08 12:04:36;;;;;;;14.13;8.00;;;;;;;;;;4953217;28;20024;-52
2023/08/08 12:07:06;;;;;;;18.05;8.40;;;;;;;;;;4953124;28;20035;-57
2023/08/08 12:09:35;;;;;;;17.85;8.90;;;;;;;;;;4952963;28;20028;-55
2023/08/08 12:12:01;;;;;;;14.77;8.02;;;;;;;;;;4953282;28;20023;-59
2023/08/08 12:14:28;;;;;;;15.57;8.40;;;;;;;;;;4946854;28;20027;-56
2023/08/08 12:16:55;;;;;;;14.50;7.72;;;;;;;;;;4952632;28;20093;-51
2023/08/08 12:19:23;;;;;;;13.88;8.10;;;;;;;;;;4952361;28;20404;-56
2023/08/08 12:21:49;;;;;;;;;;;;;;;;;;4953379;28;20015;-53
2023/08/08 12:24:15;;;;;;;16.83;9.00;;;;;;;;;;4952278;28;19936;-55
2023/08/08 12:26:41;;;;;;;16.77;8.40;;;;;;;;;;4952588;28;20491;-57
2023/08/08 12:29:07;;;;;;;15.20;8.30;;;;;;;;;;4948215;28;20027;-54
2023/08/08 12:31:33;;;;;;;14.05;7.90;;;;;;;;;;4952020;28;20416;-52
2023/08/08 12:33:59;;;;;;;15.60;8.32;;;;;;;;;;4952275;28;20034;-51
2023/08/08 12:36:25;;;;;;;14.80;8.50;;;;;;;;;;4951919;28;20023;-56
2023/08/08 12:38:51;;;;;;;14.45;8.27;;;;;;;;;;4952030;28;20126;-55
2023/08/08 12:41:17;;;;;;;15.88;7.80;;;;;;;;;;4951061;28;20027;-56
2023/08/08 12:43:43;;;;;;;14.50;8.10;;;;;;;;;;4951546;28;20035;-56
2023/08/08 12:46:09;;;;;;;14.30;8.27;;;;;;;;;;4952188;28;20454;-55
2023/08/08 12:48:35;;;;;;;14.55;8.48;;;;;;;;;;4952913;28;20523;-54
2023/08/08 12:51:02;;;;;;;15.52;8.73;;;;;;;;;;4952463;28;20035;-53
2023/08/08 12:53:28;;;;;;;14.48;8.05;;;;;;;;;;4951291;28;20032;-56
2023/08/08 12:55:54;;;;;;;14.10;8.60;;;;;;;;;;4952424;28;20024;-52
2023/08/08 12:58:20;;;;;;;15.18;9.10;;;;;;;;;;4952284;28;20432;-54
2023/08/08 13:00:46;;;;;;;17.70;8.68;;;;;;;;;;4949061;28;20084;-52
2023/08/08 13:03:12;;;;;;;19.80;9.48;;;;;;;;;;4952156;28;20051;-57
2023/08/08 13:05:38;;;;;;;17.00;8.70;;;;;;;;;;4952177;28;20480;-57
2023/08/08 13:08:05;;;;;;;17.73;8.90;;;;;;;;;;4952549;28;20031;-52
2023/08/08 13:10:31;;;;;;;14.88;8.10;;;;;;;;;;4952685;28;20027;-51
2023/08/08 13:12:57;;;;;;;13.82;7.53;;;;;;;;;;4951454;28;20125;-50
2023/08/08 13:15:23;;;;;;;16.00;8.40;;;;;;;;;;4948050;28;20031;-55
2023/08/08 13:17:49;;;;;;;16.38;8.50;;;;;;;;;;4951469;28;20586;-56
2023/08/08 13:20:15;;;;;;;15.65;9.20;;;;;;;;;;4951856;28;20035;-55
2023/08/08 13:22:42;;;;;;;13.90;8.30;;;;;;;;;;4951475;28;20458;-57
2023/08/08 13:25:08;;;;;;;15.32;8.82;;;;;;;;;;4951446;28;20393;-54
2023/08/08 13:27:34;;;;;;;14.93;8.73;;;;;;;;;;4951529;28;20098;-55
2023/08/08 13:30:00;;;;;;;13.98;8.98;;;;;;;;;;4945882;28;20023;-57
2023/08/08 13:32:26;;;;;;;16.85;8.98;;;;;;;;;;4951411;28;20399;-57
2023/08/08 13:34:52;;;;;;;17.20;8.85;;;;;;;;;;4951316;28;20395;-52
2023/08/08 13:37:18;;;;;;;14.80;8.90;;;;;;;;;;4951765;28;20265;-55
2023/08/08 13:39:44;;;;;;;14.55;9.13;;;;;;;;;;4951547;28;20027;-55
2023/08/08 13:42:11;;;;;;;15.65;8.38;;;;;;;;;;4950043;28;20038;-51
2023/08/08 13:44:37;;;;;;;14.50;9.07;;;;;;;;;;4951115;28;20051;-54
2023/08/08 13:47:03;;;;;;;14.40;9.50;;;;;;;;;;4951844;28;20047;-52
2023/08/08 13:49:29;;;;;;;15.50;9.65;;;;;;;;;;4951780;28;20019;-50
2023/08/08 13:51:55;;;;;;;15.02;9.50;;;;;;;;;;4951786;28;20027;-57
2023/08/08 13:54:21;;;;;;;14.52;9.43;;;;;;;;;;4951489;28;20032;-54
2023/08/08 13:56:47;;;;;;;18.05;9.73;;;;;;;;;;4951327;28;20096;-51
2023/08/08 13:59:14;;;;;;;14.75;9.98;;;;;;;;;;4951183;28;20176;-52
2023/08/08 14:01:40;;;;;;;15.68;10.50;;;;;;;;;;4949672;28;20037;-54
2023/08/08 14:04:06;;;;;;;14.82;10.20;;;;;;;;;;4949919;28;20031;-57
2023/08/08 14:06:32;;;;;;;14.93;9.95;;;;;;;;;;4949037;28;20023;-52
2023/08/08 14:08:58;;;;;;;14.77;10.27;;;;;;;;;;4950324;28;20332;-53
2023/08/08 14:11:23;;;;;;;15.30;10.30;;;;;;;;;;4948858;28;20467;-50
2023/08/08 14:13:49;;;;;;;14.73;10.00;;;;;;;;;;4949033;28;20028;-51
2023/08/08 14:16:15;;;;;;;15.45;9.80;;;;;;;;;;4950401;28;20039;-53
2023/08/08 14:18:41;;;;;;;16.25;10.18;;;;;;;;;;4950627;28;20055;-56
2023/08/08 14:21:07;;;;;;;15.32;9.93;;;;;;;;;;4950606;28;20066;-55
2023/08/08 14:23:33;;;;;;;14.57;9.23;;;;;;;;;;4950891;28;20023;-54
2023/08/08 14:25:59;;;;;;;15.20;9.30;;;;;;;;;;4950659;28;20020;-57